Aviation Digital Data Service (ADDS)

Output produced by METARs form (0926 UTC 28 August 2015)
found at http://aviationweather.gov/adds/metars/
 
KIAG 280837Z 2809/2906 VRB03KT P6SM FEW040 
     FM281600 23005KT P6SM BKN040 
     FM281900 25006KT P6SM SKC 
     FM290100 21004KT P6SM SCT250